createdAt,value
2017-12-12T00:00:34.937Z,9.87
2017-12-12T00:03:04.718Z,9.83
2017-12-12T00:05:34.196Z,8.60
2017-12-12T00:08:03.391Z,10.57
2017-12-12T00:10:32.912Z,7.07
2017-12-12T00:13:02.132Z,10.17
2017-12-12T00:15:31.620Z,8.57
2017-12-12T00:18:01.899Z,9.17
2017-12-12T00:20:31.391Z,8.83
2017-12-12T00:23:00.856Z,8.53
2017-12-12T00:25:30.644Z,7.97
2017-12-12T00:28:00.887Z,7.37
2017-12-12T00:30:31.825Z,9.03
2017-12-12T00:33:02.056Z,7.47
2017-12-12T00:35:31.656Z,8.57
2017-12-12T00:38:01.153Z,8.50
2017-12-12T00:40:30.671Z,8.50
2017-12-12T00:42:59.901Z,8.07
2017-12-12T00:45:29.364Z,7.67
2017-12-12T00:47:58.873Z,8.27
2017-12-12T00:50:28.492Z,8.00
2017-12-12T00:52:57.961Z,8.30
2017-12-12T00:55:27.436Z,7.80
2017-12-12T00:57:57.263Z,7.63
2017-12-12T01:00:27.504Z,7.20
2017-12-12T01:02:56.738Z,7.90
2017-12-12T01:05:26.201Z,7.90
2017-12-12T01:07:55.701Z,7.97
2017-12-12T01:10:25.942Z,8.00
2017-12-12T01:12:55.420Z,8.00
2017-12-12T01:15:24.699Z,8.37
2017-12-12T01:17:54.311Z,9.53
2017-12-12T01:20:23.773Z,9.07
2017-12-12T01:22:53.266Z,8.13
2017-12-12T01:25:22.859Z,7.73
2017-12-12T01:27:52.343Z,8.40
2017-12-12T01:30:21.817Z,8.67
2017-12-12T01:32:52.501Z,8.90
2017-12-12T01:35:21.864Z,9.17
2017-12-12T01:37:52.128Z,7.77
2017-12-12T01:40:20.952Z,8.63
2017-12-12T01:42:49.501Z,9.33
2017-12-12T01:45:18.041Z,9.03
2017-12-12T01:47:47.228Z,7.87
2017-12-12T01:50:17.464Z,9.70
2017-12-12T01:52:46.310Z,8.50
2017-12-12T01:55:15.449Z,8.83
2017-12-12T01:57:44.289Z,8.17
2017-12-12T02:00:14.204Z,8.87
2017-12-12T02:02:44.218Z,8.80
2017-12-12T02:05:13.021Z,8.60
2017-12-12T02:07:42.649Z,9.83
2017-12-12T02:10:11.189Z,8.13
2017-12-12T02:12:40.037Z,9.73
2017-12-12T02:15:09.151Z,8.67
2017-12-12T02:17:37.960Z,8.20
2017-12-12T02:20:06.781Z,8.27
2017-12-12T02:22:35.441Z,7.63
2017-12-12T02:25:03.991Z,7.23
2017-12-12T02:27:32.528Z,7.80
2017-12-12T02:30:01.347Z,7.00
2017-12-12T02:32:29.877Z,7.00
2017-12-12T02:34:58.414Z,7.10
2017-12-12T02:37:27.364Z,7.50
2017-12-12T02:39:55.924Z,7.20
2017-12-12T02:42:24.474Z,6.97
2017-12-12T02:44:53.014Z,6.67
2017-12-12T02:47:21.842Z,6.63
2017-12-12T02:49:51.096Z,6.90
2017-12-12T02:52:19.988Z,7.23
2017-12-12T02:54:48.810Z,6.97
2017-12-12T02:57:17.353Z,6.63
2017-12-12T02:59:46.124Z,6.47
2017-12-12T03:02:14.994Z,7.83
2017-12-12T03:04:44.292Z,7.13
2017-12-12T03:07:13.913Z,7.20
2017-12-12T03:09:42.480Z,6.83
2017-12-12T03:12:11.017Z,6.80
2017-12-12T03:14:39.572Z,6.87
2017-12-12T03:17:08.115Z,7.40
2017-12-12T03:19:37.436Z,8.13
2017-12-12T03:22:06.145Z,7.90
2017-12-12T03:24:36.036Z,7.83
2017-12-12T03:27:04.650Z,8.23
2017-12-12T03:29:33.218Z,8.80
2017-12-12T03:32:02.032Z,8.83
2017-12-12T03:34:30.850Z,7.97
2017-12-12T03:37:00.382Z,8.83
2017-12-12T03:39:29.955Z,10.03
2017-12-12T03:41:59.264Z,9.07
2017-12-12T03:44:28.373Z,8.80
2017-12-12T03:46:57.962Z,8.97
2017-12-12T03:49:27.110Z,9.10
2017-12-12T03:51:56.037Z,7.80
2017-12-12T03:54:24.920Z,8.27
2017-12-12T03:56:53.789Z,9.20
2017-12-12T03:59:22.761Z,8.40
2017-12-12T04:01:51.912Z,8.60
2017-12-12T04:04:21.063Z,8.93
2017-12-12T04:06:50.316Z,9.70
2017-12-12T04:09:19.517Z,8.57
2017-12-12T04:11:48.399Z,9.43
2017-12-12T04:14:17.552Z,10.80
2017-12-12T04:16:47.033Z,10.07
2017-12-12T04:19:15.844Z,9.47
2017-12-12T04:21:45.089Z,9.27
2017-12-12T04:24:13.954Z,8.50
2017-12-12T04:26:43.115Z,9.30
2017-12-12T04:29:12.264Z,8.73
2017-12-12T04:31:41.840Z,9.27
2017-12-12T04:34:11.156Z,8.27
2017-12-12T04:36:40.464Z,8.80
2017-12-12T04:39:10.060Z,9.43
2017-12-12T04:41:38.602Z,8.70
2017-12-12T04:44:07.428Z,8.20
2017-12-12T04:46:36.583Z,8.10
2017-12-12T04:49:05.698Z,8.40
2017-12-12T04:51:34.627Z,9.80
2017-12-12T04:54:03.443Z,8.70
2017-12-12T04:56:32.263Z,8.47
2017-12-12T04:59:01.792Z,7.10
2017-12-12T05:01:32.040Z,10.00
2017-12-12T05:04:01.421Z,8.80
2017-12-12T05:06:31.332Z,9.03
2017-12-12T05:08:59.869Z,9.20
2017-12-12T05:11:28.703Z,8.53
2017-12-12T05:13:58.615Z,7.83
2017-12-12T05:16:28.215Z,8.27
2017-12-12T05:18:57.959Z,7.80
2017-12-12T05:21:27.715Z,8.13
2017-12-12T05:23:56.864Z,7.90
2017-12-12T05:26:25.825Z,8.37
2017-12-12T05:28:55.748Z,7.53
2017-12-12T05:31:25.235Z,7.67
2017-12-12T05:33:54.828Z,7.67
2017-12-12T05:36:24.176Z,7.93
2017-12-12T05:38:53.885Z,7.87
2017-12-12T05:41:22.436Z,8.33
2017-12-12T05:43:50.981Z,7.33
2017-12-12T05:46:19.908Z,7.60
2017-12-12T05:48:48.445Z,8.53
2017-12-12T05:51:17.256Z,8.63
2017-12-12T05:53:46.463Z,9.90
2017-12-12T05:56:15.002Z,10.83
2017-12-12T05:58:43.873Z,10.10
2017-12-12T06:01:13.236Z,11.63
2017-12-12T06:03:42.820Z,11.10
2017-12-12T06:06:11.658Z,12.10
2017-12-12T06:08:40.412Z,11.80
2017-12-12T06:11:10.008Z,11.90
2017-12-12T06:13:38.572Z,11.87
2017-12-12T06:16:07.596Z,11.60
2017-12-12T06:18:37.178Z,12.73
2017-12-12T06:21:06.005Z,12.80
2017-12-12T06:23:34.987Z,12.17
2017-12-12T06:26:03.800Z,12.40
2017-12-12T06:28:32.660Z,13.10
2017-12-12T06:31:01.631Z,12.37
2017-12-12T06:33:31.553Z,12.93
2017-12-12T06:36:01.480Z,13.20
2017-12-12T06:38:30.028Z,12.63
2017-12-12T06:40:58.852Z,13.53
2017-12-12T06:43:27.782Z,12.33
2017-12-12T06:45:57.704Z,11.43
2017-12-12T06:48:26.527Z,11.00
2017-12-12T06:50:57.153Z,13.13
2017-12-12T06:53:26.740Z,11.27
2017-12-12T06:55:55.385Z,11.30
2017-12-12T06:58:24.322Z,12.03
2017-12-12T07:00:53.124Z,13.00
2017-12-12T07:03:21.995Z,10.83
2017-12-12T07:05:50.829Z,13.00
2017-12-12T07:08:19.383Z,12.63
2017-12-12T07:10:48.968Z,12.40
2017-12-12T07:13:18.172Z,11.80
2017-12-12T07:15:47.763Z,12.90
2017-12-12T07:18:16.596Z,10.97
2017-12-12T07:20:46.400Z,10.70
2017-12-12T07:23:15.584Z,11.57
2017-12-12T07:25:45.849Z,13.47
2017-12-12T07:28:16.235Z,12.73
2017-12-12T07:30:45.836Z,13.37
2017-12-12T07:33:16.093Z,14.13
2017-12-12T07:35:45.589Z,15.60
2017-12-12T07:38:14.785Z,15.00
2017-12-12T07:40:44.714Z,16.40
2017-12-12T07:43:14.525Z,17.20
2017-12-12T07:45:43.985Z,16.43
2017-12-12T07:48:13.151Z,16.47
2017-12-12T07:50:42.876Z,14.97
2017-12-12T07:53:12.829Z,17.50
2017-12-12T07:55:41.998Z,17.87
2017-12-12T07:58:11.904Z,18.07
2017-12-12T08:00:42.183Z,18.90
2017-12-12T08:03:12.161Z,20.83
2017-12-12T08:05:41.332Z,19.10
2017-12-12T08:08:11.132Z,19.30
2017-12-12T08:10:41.061Z,22.67
2017-12-12T08:13:11.314Z,22.13
2017-12-12T08:15:40.480Z,24.67
2017-12-12T08:18:09.981Z,24.30
2017-12-12T08:20:39.924Z,24.77
2017-12-12T08:23:09.096Z,24.00
2017-12-12T08:25:38.248Z,25.60
2017-12-12T08:28:07.821Z,23.57
2017-12-12T08:30:36.668Z,25.40
2017-12-12T08:33:06.640Z,26.10
2017-12-12T08:35:35.837Z,26.40
2017-12-12T08:38:06.916Z,24.63
2017-12-12T08:40:37.184Z,23.03
2017-12-12T08:43:06.703Z,24.97
2017-12-12T08:45:38.029Z,21.93
2017-12-12T08:48:07.650Z,20.47
2017-12-12T08:50:36.884Z,19.17
2017-12-12T08:53:07.484Z,18.10
2017-12-12T08:55:36.981Z,16.90
2017-12-12T08:58:06.780Z,14.77
2017-12-12T09:00:36.652Z,13.37
2017-12-12T09:03:05.868Z,13.00
2017-12-12T09:05:35.349Z,13.63
2017-12-12T09:08:05.716Z,12.37
2017-12-12T09:10:35.206Z,12.23
2017-12-12T09:13:04.116Z,13.10
2017-12-12T09:15:33.973Z,13.40
2017-12-12T09:18:03.179Z,14.60
2017-12-12T09:20:32.765Z,14.10
2017-12-12T09:23:02.268Z,15.73
2017-12-12T09:25:31.156Z,16.13
2017-12-12T09:28:00.336Z,16.10
2017-12-12T09:30:30.044Z,15.33
2017-12-12T09:32:59.552Z,14.47
2017-12-12T09:35:29.377Z,15.30
2017-12-12T09:37:59.632Z,15.93
2017-12-12T09:40:29.122Z,16.90
2017-12-12T09:42:58.302Z,16.40
2017-12-12T09:45:28.556Z,18.63
2017-12-12T09:47:58.055Z,20.13
2017-12-12T09:50:27.204Z,21.40
2017-12-12T09:52:56.694Z,20.87
2017-12-12T09:55:26.292Z,20.47
2017-12-12T09:57:55.792Z,21.00
2017-12-12T10:00:24.948Z,20.57
2017-12-12T10:02:54.324Z,19.13
2017-12-12T10:05:24.045Z,18.77
2017-12-12T10:07:54.312Z,17.40
2017-12-12T10:10:24.230Z,18.00
2017-12-12T10:12:53.687Z,18.77
2017-12-12T10:15:22.530Z,18.73
2017-12-12T10:17:52.012Z,17.43
2017-12-12T10:20:21.168Z,18.53
2017-12-12T10:22:50.328Z,18.17
2017-12-12T10:25:19.603Z,17.60
2017-12-12T10:27:49.071Z,17.07
2017-12-12T10:30:17.910Z,16.73
2017-12-12T10:32:48.165Z,17.37
2017-12-12T10:35:18.088Z,15.87
2017-12-12T10:37:46.903Z,16.23
2017-12-12T10:40:15.552Z,15.40
2017-12-12T10:42:44.191Z,15.10
2017-12-12T10:45:13.000Z,13.47
2017-12-12T10:47:41.888Z,13.37
2017-12-12T10:50:10.452Z,12.70
2017-12-12T10:52:40.092Z,12.97
2017-12-12T10:55:10.034Z,11.47
2017-12-12T10:57:38.904Z,12.10
2017-12-12T11:00:08.404Z,11.60
2017-12-12T11:02:37.719Z,11.90
2017-12-12T11:05:07.212Z,11.50
2017-12-12T11:07:36.704Z,11.03
2017-12-12T11:10:06.312Z,10.77
2017-12-12T11:12:36.549Z,11.43
2017-12-12T11:15:06.073Z,11.60
2017-12-12T11:17:35.668Z,11.07
2017-12-12T11:20:05.149Z,10.83
2017-12-12T11:22:35.420Z,11.67
2017-12-12T11:25:04.974Z,10.90
2017-12-12T11:27:34.571Z,12.10
2017-12-12T11:30:03.604Z,11.47
2017-12-12T11:32:32.543Z,12.40
2017-12-12T11:35:02.200Z,13.43
2017-12-12T11:37:32.220Z,13.43
2017-12-12T11:40:01.434Z,14.40
2017-12-12T11:42:33.605Z,15.37
2017-12-12T11:45:03.104Z,17.63
2017-12-12T11:47:32.634Z,19.07
2017-12-12T11:50:01.480Z,17.80
2017-12-12T11:52:35.694Z,18.10
2017-12-12T11:55:04.859Z,18.43
2017-12-12T11:57:33.400Z,18.67
2017-12-12T12:00:03.642Z,19.17
2017-12-12T12:02:33.617Z,17.67
2017-12-12T12:05:02.162Z,18.30
2017-12-12T12:07:31.384Z,19.40
2017-12-12T12:10:00.372Z,18.03
2017-12-12T12:12:29.196Z,18.13
2017-12-12T12:14:58.041Z,19.03
2017-12-12T12:17:27.600Z,19.33
2017-12-12T12:19:57.972Z,18.23
2017-12-12T12:22:27.732Z,18.80
2017-12-12T12:24:56.284Z,18.53
2017-12-12T12:27:25.920Z,18.73
2017-12-12T12:29:55.660Z,19.93
2017-12-12T12:32:24.289Z,20.60
2017-12-12T12:34:52.823Z,19.97
2017-12-12T12:37:22.040Z,18.97
2017-12-12T12:39:51.684Z,19.37
2017-12-12T12:42:21.415Z,19.07
2017-12-12T12:44:51.682Z,19.93
2017-12-12T12:47:20.853Z,19.83
2017-12-12T12:49:49.397Z,20.07
2017-12-12T12:52:19.317Z,20.23
2017-12-12T12:54:49.342Z,19.67
2017-12-12T12:57:18.957Z,19.53
2017-12-12T12:59:48.450Z,18.87
2017-12-12T13:02:18.405Z,19.37
2017-12-12T13:04:47.874Z,19.67
2017-12-12T13:07:18.125Z,19.27
2017-12-12T13:09:47.655Z,18.27
2017-12-12T13:12:17.117Z,19.47
2017-12-12T13:14:46.602Z,18.53
2017-12-12T13:17:16.515Z,18.73
2017-12-12T13:19:45.676Z,18.70
2017-12-12T13:22:15.651Z,18.53
2017-12-12T13:24:45.132Z,19.37
2017-12-12T13:27:14.636Z,18.73
2017-12-12T13:29:44.290Z,20.10
2017-12-12T13:32:13.763Z,20.53
2017-12-12T13:34:42.917Z,19.80
2017-12-12T13:37:12.906Z,21.63
2017-12-12T13:39:42.388Z,23.40
2017-12-12T13:42:11.315Z,24.43
2017-12-12T13:44:41.096Z,25.77
2017-12-12T13:47:10.617Z,25.27
2017-12-12T13:49:40.096Z,24.63
2017-12-12T13:52:09.378Z,25.33
2017-12-12T13:54:38.865Z,27.20
2017-12-12T13:57:08.341Z,24.90
2017-12-12T13:59:38.872Z,25.80
2017-12-12T14:02:09.121Z,24.17
2017-12-12T14:04:38.614Z,23.90
2017-12-12T14:07:08.879Z,23.43
2017-12-12T14:09:39.182Z,23.43
2017-12-12T14:12:09.404Z,23.40
2017-12-12T14:14:39.065Z,23.93
2017-12-12T14:17:09.312Z,23.80
2017-12-12T14:19:38.800Z,23.97
2017-12-12T14:22:08.732Z,21.17
2017-12-12T14:24:37.937Z,20.73
2017-12-12T14:27:07.593Z,21.87
2017-12-12T14:29:37.116Z,17.93
2017-12-12T14:32:06.792Z,17.53
2017-12-12T14:34:36.281Z,18.53
2017-12-12T14:37:05.759Z,18.20
2017-12-12T14:39:35.529Z,18.87
2017-12-12T14:42:05.797Z,18.73
2017-12-12T14:44:35.301Z,18.57
2017-12-12T14:47:05.011Z,18.87
2017-12-12T14:49:34.215Z,21.00
2017-12-12T14:52:03.853Z,20.47
2017-12-12T14:54:33.348Z,19.63
2017-12-12T14:57:03.106Z,20.47
2017-12-12T14:59:33.722Z,19.13
2017-12-12T15:02:03.960Z,21.30
2017-12-12T15:04:33.820Z,21.77
2017-12-12T15:07:03.314Z,20.27
2017-12-12T15:09:32.873Z,21.27
2017-12-12T15:12:02.348Z,20.90
2017-12-12T15:14:32.614Z,20.10
2017-12-12T15:17:02.108Z,17.33
2017-12-12T15:19:32.349Z,19.47
2017-12-12T15:22:01.944Z,20.93
2017-12-12T15:24:31.475Z,21.77
2017-12-12T15:27:01.024Z,20.30
2017-12-12T15:29:30.556Z,21.57
2017-12-12T15:32:00.050Z,21.67
2017-12-12T15:34:29.512Z,20.97
2017-12-12T15:36:59.756Z,21.97
2017-12-12T15:39:29.100Z,22.57
2017-12-12T15:41:58.584Z,22.30
2017-12-12T15:44:28.866Z,22.87
2017-12-12T15:46:58.351Z,22.30
2017-12-12T15:49:28.164Z,25.37
2017-12-12T15:51:59.016Z,25.10
2017-12-12T15:54:28.940Z,24.13
2017-12-12T15:56:58.732Z,25.97
2017-12-12T15:59:28.984Z,27.33
2017-12-12T16:01:58.577Z,27.13
2017-12-12T16:04:28.805Z,27.67
2017-12-12T16:06:58.456Z,26.60
2017-12-12T16:09:27.947Z,28.43
2017-12-12T16:11:57.804Z,29.47
2017-12-12T16:14:28.069Z,28.47
2017-12-12T16:16:57.541Z,30.63
2017-12-12T16:19:28.356Z,30.17
2017-12-12T16:21:58.605Z,28.97
2017-12-12T16:24:28.095Z,29.90
2017-12-12T16:26:58.357Z,31.17
2017-12-12T16:29:27.863Z,28.53
2017-12-12T16:31:57.367Z,31.70
2017-12-12T16:34:26.854Z,30.53
2017-12-12T16:36:55.825Z,31.17
2017-12-12T16:39:24.739Z,29.23
2017-12-12T16:41:53.936Z,29.23
2017-12-12T16:44:23.796Z,32.07
2017-12-12T16:46:54.041Z,29.57
2017-12-12T16:49:23.529Z,31.67
2017-12-12T16:51:53.452Z,31.13
2017-12-12T16:54:22.936Z,31.10
2017-12-12T16:56:53.218Z,29.63
2017-12-12T16:59:22.368Z,29.23
2017-12-12T17:01:51.912Z,30.23
2017-12-12T17:04:21.564Z,31.60
2017-12-12T17:06:51.844Z,30.10
2017-12-12T17:09:21.321Z,25.63
2017-12-12T17:11:50.638Z,28.97
2017-12-12T17:14:20.101Z,28.07
2017-12-12T17:16:50.169Z,28.20
2017-12-12T17:19:20.016Z,28.90
2017-12-12T17:21:50.264Z,26.77
2017-12-12T17:24:19.757Z,26.50
2017-12-12T17:26:49.657Z,25.73
2017-12-12T17:29:19.952Z,27.53
2017-12-12T17:31:56.684Z,27.67
2017-12-12T17:34:26.935Z,28.63
2017-12-12T17:36:56.951Z,27.27
2017-12-12T17:39:26.431Z,28.33
2017-12-12T17:41:58.652Z,26.93
2017-12-12T17:44:28.911Z,28.13
2017-12-12T17:46:58.083Z,27.33
2017-12-12T17:49:28.340Z,28.07
2017-12-12T17:51:57.869Z,29.80
2017-12-12T17:54:27.393Z,30.17
2017-12-12T17:56:56.909Z,29.80
2017-12-12T17:59:51.427Z,30.67
2017-12-12T18:05:02.897Z,31.07
2017-12-12T18:07:33.160Z,29.20
2017-12-12T18:10:02.668Z,30.10
2017-12-12T18:12:32.176Z,29.40
2017-12-12T18:15:01.650Z,28.67
2017-12-12T18:17:31.538Z,29.73
2017-12-12T18:20:01.876Z,28.07
2017-12-12T18:22:31.380Z,28.00
2017-12-12T18:25:00.593Z,29.13
2017-12-12T18:27:30.082Z,28.43
2017-12-12T18:30:00.448Z,31.77
2017-12-12T18:32:29.944Z,28.60
2017-12-12T18:34:59.431Z,29.63
2017-12-12T18:37:31.636Z,30.33
2017-12-12T18:40:01.137Z,29.97
2017-12-12T18:42:30.629Z,27.50
2017-12-12T18:45:00.896Z,32.57
2017-12-12T18:47:30.534Z,32.77
2017-12-12T18:50:00.008Z,32.47
2017-12-12T18:52:29.495Z,30.93
2017-12-12T18:55:00.146Z,30.23
2017-12-12T18:57:29.657Z,33.03
2017-12-12T19:00:03.353Z,31.63
2017-12-12T19:02:33.334Z,30.40
2017-12-12T19:05:02.832Z,32.53
2017-12-12T19:07:32.640Z,30.67
2017-12-12T19:10:04.647Z,31.23
2017-12-12T19:12:34.262Z,30.00
2017-12-12T19:15:04.175Z,33.00
2017-12-12T19:17:34.280Z,31.40
2017-12-12T19:20:07.780Z,31.73
2017-12-12T19:22:38.024Z,31.63
2017-12-12T19:25:07.512Z,30.97
2017-12-12T19:27:37.237Z,30.53
2017-12-12T19:30:07.115Z,31.13
2017-12-12T19:32:36.618Z,30.53
2017-12-12T19:35:06.150Z,30.63
2017-12-12T19:37:37.162Z,28.57
2017-12-12T19:40:08.097Z,32.93
2017-12-12T19:42:37.683Z,31.47
2017-12-12T19:45:07.786Z,32.60
2017-12-12T19:47:37.597Z,30.90
2017-12-12T19:50:07.396Z,31.00
2017-12-12T19:52:37.203Z,31.23
2017-12-12T19:55:06.705Z,29.80
2017-12-12T19:57:36.189Z,32.47
2017-12-12T20:00:05.161Z,30.03
2017-12-12T20:02:34.743Z,28.87
2017-12-12T20:05:04.729Z,31.20
2017-12-12T20:07:34.705Z,31.63
2017-12-12T20:10:03.871Z,29.73
2017-12-12T20:12:34.904Z,31.10
2017-12-12T20:15:04.872Z,32.00
2017-12-12T20:17:39.799Z,31.23
2017-12-12T20:20:09.303Z,32.70
2017-12-12T20:22:39.164Z,29.20
2017-12-12T20:25:09.089Z,31.53
2017-12-12T20:27:38.265Z,33.97
2017-12-12T20:30:08.189Z,30.87
2017-12-12T20:32:38.612Z,30.83
2017-12-12T20:35:08.852Z,32.40
2017-12-12T20:37:38.371Z,32.37
2017-12-12T20:40:07.868Z,32.73
2017-12-12T20:42:37.024Z,29.97
2017-12-12T20:45:07.276Z,33.90
2017-12-12T20:47:37.056Z,32.03
2017-12-12T20:50:06.528Z,32.13
2017-12-12T20:52:36.289Z,32.70
2017-12-12T20:55:05.897Z,32.63
2017-12-12T20:57:35.389Z,32.53
2017-12-12T21:00:05.660Z,32.77
2017-12-12T21:02:35.637Z,32.03
2017-12-12T21:05:04.872Z,34.50
2017-12-12T21:07:36.132Z,33.73
2017-12-12T21:10:05.106Z,35.37
2017-12-12T21:12:34.587Z,35.47
2017-12-12T21:15:03.736Z,35.50
2017-12-12T21:17:33.272Z,34.50
2017-12-12T21:20:02.771Z,36.57
2017-12-12T21:22:32.255Z,36.97
2017-12-12T21:25:02.656Z,37.17
2017-12-12T21:27:32.165Z,36.00
2017-12-12T21:30:01.664Z,37.23
2017-12-12T21:32:31.168Z,36.93
2017-12-12T21:35:00.664Z,37.80
2017-12-12T21:37:30.208Z,33.87
2017-12-12T21:39:59.937Z,37.27
2017-12-12T21:42:29.471Z,37.20
2017-12-12T21:47:43.075Z,35.03
2017-12-12T21:50:12.577Z,36.43
2017-12-12T21:52:42.085Z,37.17
2017-12-12T21:55:12.830Z,39.33
2017-12-12T21:57:42.300Z,37.17
2017-12-12T22:00:12.566Z,40.23
2017-12-12T22:02:41.792Z,40.33
2017-12-12T22:05:11.296Z,41.67
2017-12-12T22:07:40.846Z,41.33
2017-12-12T22:10:11.346Z,41.83
2017-12-12T22:12:41.896Z,42.53
2017-12-12T22:15:11.376Z,39.80
2017-12-12T22:17:41.360Z,40.17
2017-12-12T22:20:10.873Z,41.03
2017-12-12T22:22:40.363Z,41.03
2017-12-12T22:25:09.837Z,41.40
2017-12-12T22:27:39.332Z,41.43
2017-12-12T22:30:08.833Z,40.67
2017-12-12T22:32:38.046Z,40.27
2017-12-12T22:35:07.756Z,37.77
2017-12-12T22:37:38.143Z,37.37
2017-12-12T22:40:08.409Z,38.63
2017-12-12T22:42:37.636Z,39.67
2017-12-12T22:45:07.145Z,40.77
2017-12-12T22:47:36.652Z,37.70
2017-12-12T22:50:06.923Z,36.40
2017-12-12T22:52:36.428Z,36.50
2017-12-12T22:55:05.928Z,36.80
2017-12-12T22:57:35.436Z,36.87
2017-12-12T23:00:04.548Z,36.43
2017-12-12T23:02:34.576Z,35.63
2017-12-12T23:05:04.116Z,36.73
2017-12-12T23:07:33.584Z,36.33
2017-12-12T23:10:03.103Z,35.13
2017-12-12T23:12:33.366Z,34.60
2017-12-12T23:15:02.861Z,33.37
2017-12-12T23:17:32.347Z,34.23
2017-12-12T23:20:01.873Z,33.53
2017-12-12T23:22:31.369Z,38.47
2017-12-12T23:25:00.868Z,36.20
2017-12-12T23:27:30.382Z,34.63
2017-12-12T23:29:59.888Z,35.33
2017-12-12T23:32:29.403Z,33.63
2017-12-12T23:34:59.173Z,34.67
2017-12-12T23:37:29.445Z,32.70
2017-12-12T23:39:59.318Z,30.83
2017-12-12T23:42:30.228Z,32.50
2017-12-12T23:45:00.492Z,33.87
2017-12-12T23:47:29.988Z,31.83
2017-12-12T23:50:00.036Z,30.83
2017-12-12T23:52:30.072Z,32.17
2017-12-12T23:54:59.576Z,32.57
2017-12-12T23:57:29.392Z,29.47
2017-12-12T23:59:58.884Z,31.10
